Nearby METAR Reports

 

KISP - Islip, New York, USA
Distance from station: SW 4mi, 6km
Updated: Wed, 10/23/2019 2:56 am EDT
Light rain, Mist, Overcast
Light rain, Mist, Overcast
 Wind from SSW
Wind: SSW 10 mph , 17 km/h
Temperature: 64°F , 18°C
Dew Point: 64°F , 18°C
Humidity: 100%
Barometer: 29.73 inHg , 1006.8 hPa
Summary: Light rain, Mist
Clouds: Overcast
Visibility: 4 miles , 6 km
Cloud details: Overcast 400 ft
2019/10/23 06:56 KISP 230656Z AUTO 20009KT 4SM -RA BR OVC004 18/18 A2973 RMK AO2 RAE39B48 SLP067 P0005 T01830183
KHWV - Shirley, New York, USA
Distance from station: E 10mi, 16km
Updated: Wed, 10/23/2019 3:03 am EDT
Mist, Overcast
Mist, Overcast
 Wind from SSE
Wind: SSE 13 mph , 20 km/h, Gust: 22 mph , 35 km/h
Temperature: 64°F , 18°C
Dew Point: 63°F , 17°C
Humidity: 94%
Barometer: 29.74 inHg , 1007.1 hPa
Summary: Mist
Clouds: Overcast
Visibility: 5 miles , 8 km
Cloud details: Mostly cloudy 500 ft
Mostly cloudy 1200 ft
Overcast 1600 ft
2019/10/23 07:03 KHWV 230703Z AUTO 16011G19KT 5SM BR BKN005 BKN012 OVC016 18/17 A2974 RMK AO2 T01830172 $
 
KFRG - Farmingdale, New York, USA
Distance from station: WSW 20mi, 33km
Updated: Wed, 10/23/2019 2:53 am EDT
Mist, Overcast
Mist, Overcast
 Wind from SW
Wind: SW 9 mph , 15 km/h
Temperature: 64°F , 18°C
Dew Point: 63°F , 17°C
Humidity: 94%
Barometer: 29.74 inHg , 1007.1 hPa
Summary: Mist
Clouds: Overcast
Visibility: 4 miles , 6 km
Cloud details: Overcast 500 ft
2019/10/23 06:53 KFRG 230653Z AUTO 23008KT 4SM BR OVC005 18/17 A2974 RMK AO2 RAE0555B12E32 CIG 004V009 SLP069 P0000 T01830172
KBDR - Bridgeport, Connecticut, USA
Distance from station: N 23mi, 37km
Updated: Wed, 10/23/2019 2:52 am EDT
Light rain, Mist, Overcast
Light rain, Mist, Overcast
 Wind from ESE
Wind: ESE 7 mph , 11 km/h
Temperature: 63°F , 17°C
Dew Point: 63°F , 17°C
Humidity: 100%
Barometer: 29.73 inHg , 1006.8 hPa
Summary: Light rain, Mist
Clouds: Overcast
Visibility: 5 miles , 8 km
Cloud details: Overcast 300 ft
2019/10/23 06:52 KBDR 230652Z AUTO 11006KT 5SM -RA BR OVC003 17/17 A2973 RMK AO2 SLP067 P0004 T01720167 $
 
KFOK - Westhampton Beac, New York, USA
Distance from station: E 23mi, 37km
Updated: Wed, 10/23/2019 2:53 am EDT
Light rain, Mist, Overcast
Light rain, Mist, Overcast
 Wind from SSE
Wind: SSE 9 mph , 15 km/h
Temperature: 63°F , 17°C
Dew Point: 63°F , 17°C
Humidity: 100%
Barometer: 29.76 inHg , 1007.8 hPa
Summary: Light rain, Mist
Clouds: Overcast
Visibility: 4 miles , 6 km
Cloud details: Mostly cloudy 300 ft
Mostly cloudy 1000 ft
Overcast 1500 ft
2019/10/23 06:53 KFOK 230653Z AUTO 16008KT 4SM -RA BR BKN003 BKN010 OVC015 17/17 A2976 RMK AO2 SLP076 P0003 T01720172
KHVN - New Haven/Tweed, Connecticut, USA
Distance from station: NNE 31mi, 50km
Updated: Wed, 10/23/2019 2:53 am EDT
Light rain, Mist, Overcast
Light rain, Mist, Overcast
 Wind from ESE
Wind: ESE 10 mph , 17 km/h
Temperature: 64°F , 18°C
Dew Point: 63°F , 17°C
Humidity: 94%
Barometer: 29.74 inHg , 1007.1 hPa
Summary: Light rain, Mist
Clouds: Overcast
Visibility: 4 miles , 6 km
Cloud details: Mostly cloudy 300 ft
Overcast 800 ft
2019/10/23 06:53 KHVN 230653Z AUTO 11009KT 4SM -RA BR BKN003 OVC008 18/17 A2974 RMK AO2 RAB06E16B38 SLP069 P0004 T01780167
 
KHPN - White Plains, New York, USA
Distance from station: WNW 37mi, 60km
Updated: Wed, 10/23/2019 2:56 am EDT
Mostly cloudy
Mostly cloudy
 Wind from NW
Wind: NW 15 mph , 24 km/h
Temperature: 57°F , 14°C
Dew Point: 55°F , 13°C
Humidity: 94%
Barometer: 29.76 inHg , 1007.8 hPa
Clouds: Mostly cloudy
Visibility: 10 miles , 16 km
Cloud details: Few Clouds 700 ft
Partly cloudy 1600 ft
Mostly cloudy 3100 ft
2019/10/23 06:56 KHPN 230656Z 32013KT 10SM FEW007 SCT016 BKN031 14/13 A2976 RMK AO2 RAE52 SLP078 P0003 T01390133
KJFK - Nyc/Jfk Arpt, New York, USA
Distance from station: WSW 40mi, 64km
Updated: Wed, 10/23/2019 3:01 am EDT
Mostly cloudy
Mostly cloudy
 Wind from NW
Wind: NW 14 mph , 22 km/h
Temperature: 61°F , 16°C
Dew Point: 61°F , 16°C
Humidity: 100%
Barometer: 29.76 inHg , 1007.8 hPa
Clouds: Mostly cloudy
Visibility: 10 miles , 16 km
Cloud details: Partly cloudy 2200 ft
Partly cloudy 6500 ft
Mostly cloudy 11000 ft
2019/10/23 07:01 KJFK 230701Z 32012KT 10SM SCT022 SCT065 BKN110 16/16 A2976 RMK AO2 T01610161
 
KDXR - Danbury, Connecticut, USA
Distance from station: NNW 42mi, 68km
Updated: Wed, 10/23/2019 3:14 am EDT
Light rain, Mist, Overcast
Light rain, Mist, Overcast
 Wind from NW
Wind: NW 6 mph , 9 km/h
Temperature: 57°F , 14°C
Dew Point: 55°F , 13°C
Humidity: 94%
Barometer: 29.78 inHg , 1008.5 hPa
Summary: Light rain, Mist
Clouds: Overcast
Visibility: 4 miles , 6 km
Cloud details: Few Clouds 800 ft
Few Clouds 1900 ft
Overcast 2400 ft
2019/10/23 07:14 KDXR 230714Z AUTO 31005KT 4SM -RA BR FEW008 FEW019 OVC024 14/13 A2978 RMK AO2 P0001 T01390133
KHTO - East Hampton, New York, USA
Distance from station: E 43mi, 69km
Updated: Wed, 10/23/2019 3:15 am EDT
Light rain, Overcast
Light rain, Overcast
 Wind from SE
Wind: SE 5 mph , 7 km/h
Temperature: 63°F , 17°C
Dew Point: 63°F , 17°C
Humidity: 100%
Barometer: 29.74 inHg , 1007.1 hPa
Summary: Light rain
Clouds: Overcast
Visibility: 2 miles , 3 km
Cloud details: Overcast 200 ft
2019/10/23 07:15 KHTO 230715Z AUTO 14004KT 2SM -RA OVC002 17/17 A2974 RMK AO2 P0002 T01670165
 
KOXC - Oxford/Waterbury, Connecticut, USA
Distance from station: N 43mi, 70km
Updated: Wed, 10/23/2019 3:25 am EDT
Rain, Mist, Overcast
Rain, Mist, Overcast
 Wind from NW
Wind: NW 7 mph , 11 km/h, Gust: 17 mph , 28 km/h
Temperature: 55°F , 13°C
Dew Point: 55°F , 13°C
Humidity: 100%
Barometer: 29.78 inHg , 1008.5 hPa
Summary: Rain, Mist
Clouds: Overcast
Visibility: 2 miles , 3 km
Cloud details: Mostly cloudy 400 ft
Overcast 800 ft
2019/10/23 07:25 KOXC 230725Z AUTO 32006G15KT 2SM RA BR BKN004 OVC008 13/13 A2978 RMK AO2 CIG 001V007 P0005
KLGA - Nyc/La Guardia, New York, USA
Distance from station: W 44mi, 70km
Updated: Wed, 10/23/2019 2:51 am EDT
Overcast
Overcast
 Wind from NNW
Wind: NNW 13 mph , 20 km/h
Temperature: 61°F , 16°C
Dew Point: 57°F , 14°C
Humidity: 88%
Barometer: 29.76 inHg , 1007.8 hPa
Clouds: Overcast
Visibility: 10 miles , 16 km
Cloud details: Few Clouds 800 ft
Mostly cloudy 1800 ft
Overcast 6000 ft
2019/10/23 06:51 KLGA 230651Z 33011KT 10SM FEW008 BKN018 OVC060 16/14 A2976 RMK AO2 WSHFT 0553 RAE08 SLP076 P0001 T01560139 $
 
KSNC - Chester, Connecticut, USA
Distance from station: NE 47mi, 76km
Updated: Wed, 10/23/2019 3:15 am EDT
Light rain
Light rain
 Wind from SE
Wind: SE 5 mph , 7 km/h
Temperature: 61°F , 16°C
Dew Point: 61°F , 16°C
Humidity: 100%
Barometer: 29.75 inHg , 1007.5 hPa
Summary: Light rain
Visibility: 1/2 mile , 0.8 km
2019/10/23 07:15 KSNC 230715Z AUTO 14004KT 1/2SM -RA 16/16 A2975 RMK AO2
KMMK - Meriden, Connecticut, USA
Distance from station: NNE 48mi, 77km
Updated: Wed, 10/23/2019 3:11 am EDT
Light rain, Mist, Overcast
Light rain, Mist, Overcast
 Wind from NNW
Wind: NNW 5 mph , 7 km/h
Temperature: 55°F , 13°C
Dew Point: 55°F , 13°C
Humidity: 100%
Barometer: 29.74 inHg , 1007.1 hPa
Summary: Light rain, Mist
Clouds: Overcast
Visibility: 3 miles , 5 km
Cloud details: Overcast 700 ft
2019/10/23 07:11 KMMK 230711Z AUTO 33004KT 3SM -RA BR OVC007 13/13 A2974 RMK AO2 P0003 T01330128
 
KNYC - Nyc/Central Park, New York, USA
Distance from station: W 48mi, 77km
Updated: Wed, 10/23/2019 2:51 am EDT
Overcast
Overcast
 Wind from NNW
Wind: NNW 5 mph , 7 km/h
Temperature: 61°F , 16°C
Dew Point: 57°F , 14°C
Humidity: 88%
Barometer: 29.79 inHg , 1008.8 hPa
Clouds: Overcast
Visibility: 10 miles , 16 km
Cloud details: Overcast 3500 ft
2019/10/23 06:51 KNYC 230651Z AUTO 34004KT 10SM OVC035 16/14 A2979 RMK AO2 RAE17 SLP078 P0000 T01560139 $